createdAt,value
2022-10-18T04:12:40.783Z,54.67
2022-10-18T04:15:08.858Z,55.17
2022-10-18T04:17:36.936Z,48.67
2022-10-18T04:20:05.249Z,45.55
2022-10-18T04:22:33.074Z,51.53
2022-10-18T04:25:00.727Z,53.80
2022-10-18T04:27:28.525Z,52.10
2022-10-18T04:29:56.318Z,52.75
2022-10-18T04:32:24.539Z,54.65
2022-10-18T04:34:51.783Z,57.10
2022-10-18T04:37:18.976Z,53.35
2022-10-18T04:39:51.360Z,55.92
2022-10-18T04:42:22.085Z,52.35
2022-10-18T04:44:49.837Z,52.08
2022-10-18T04:47:17.955Z,52.10
2022-10-18T04:49:45.184Z,52.45
2022-10-18T04:52:12.508Z,53.42
2022-10-18T04:54:40.171Z,54.05
2022-10-18T04:57:07.755Z,55.28
2022-10-18T04:59:35.034Z,55.78
2022-10-18T05:04:34.410Z,57.17
2022-10-18T05:07:02.789Z,61.72
2022-10-18T05:09:30.060Z,58.60
2022-10-18T05:11:57.252Z,60.88
2022-10-18T05:14:24.971Z,58.63
2022-10-18T05:16:52.737Z,58.78
2022-10-18T05:19:20.191Z,56.80
2022-10-18T05:21:47.993Z,59.28
2022-10-18T05:24:15.211Z,60.90
2022-10-18T05:26:42.472Z,58.97
2022-10-18T05:29:09.870Z,57.00
2022-10-18T05:31:37.420Z,59.92
2022-10-18T05:34:04.819Z,59.67
2022-10-18T05:36:32.124Z,56.08
2022-10-18T05:39:02.432Z,55.92
2022-10-18T05:41:32.960Z,54.50
2022-10-18T05:44:04.675Z,51.88
2022-10-18T05:48:59.320Z,53.22
2022-10-18T05:51:26.781Z,56.08
2022-10-18T05:53:54.772Z,56.17
2022-10-18T05:56:22.096Z,57.58
2022-10-18T05:58:51.196Z,59.03
2022-10-18T06:01:19.760Z,60.95
2022-10-18T06:03:47.213Z,60.28
2022-10-18T06:06:15.485Z,63.40
2022-10-18T06:08:43.806Z,64.57
2022-10-18T06:11:16.922Z,67.38
2022-10-18T06:13:47.208Z,68.85
2022-10-18T06:16:16.981Z,66.68
2022-10-18T06:18:48.846Z,68.75
2022-10-18T06:23:48.285Z,67.25
2022-10-18T06:26:16.004Z,67.95
2022-10-18T06:28:44.828Z,70.00
2022-10-18T06:31:13.291Z,74.70
2022-10-18T06:33:41.409Z,75.53
2022-10-18T06:36:14.800Z,76.07
2022-10-18T06:38:42.416Z,77.55
2022-10-18T06:41:10.529Z,78.85
2022-10-18T06:43:37.830Z,77.97
2022-10-18T06:46:08.024Z,76.95
2022-10-18T06:48:36.747Z,77.47
2022-10-18T06:51:06.877Z,76.57
2022-10-18T06:53:44.099Z,80.97
2022-10-18T06:56:16.292Z,82.90
2022-10-18T06:58:43.866Z,81.78
2022-10-18T07:01:17.376Z,82.25
2022-10-18T07:03:46.705Z,87.68
2022-10-18T07:06:16.977Z,86.15
2022-10-18T07:08:44.769Z,87.20
2022-10-18T07:11:21.476Z,85.60
2022-10-18T07:13:48.850Z,85.40
2022-10-18T07:16:19.423Z,88.65
2022-10-18T07:18:51.451Z,88.68
2022-10-18T07:21:21.944Z,85.22
2022-10-18T07:23:50.508Z,85.20
2022-10-18T07:26:21.715Z,86.82
2022-10-18T07:28:55.318Z,84.75
2022-10-18T07:31:23.676Z,88.88
2022-10-18T07:33:51.896Z,86.97
2022-10-18T07:36:21.290Z,86.70
2022-10-18T07:38:49.833Z,88.47
2022-10-18T07:41:17.412Z,82.30
2022-10-18T07:43:50.848Z,83.28
2022-10-18T07:46:19.507Z,83.20
2022-10-18T07:48:47.279Z,80.63
2022-10-18T07:51:14.790Z,76.80
2022-10-18T07:53:42.380Z,75.90
2022-10-18T07:56:16.193Z,75.00
2022-10-18T07:58:54.144Z,78.85
2022-10-18T08:01:24.059Z,76.68
2022-10-18T08:03:53.182Z,76.07
2022-10-18T08:06:22.856Z,73.30
2022-10-18T08:08:50.792Z,75.63
2022-10-18T08:11:21.011Z,72.97
2022-10-18T08:13:49.099Z,72.35
2022-10-18T08:16:20.623Z,72.82
2022-10-18T08:18:48.008Z,73.70
2022-10-18T08:21:17.255Z,71.43
2022-10-18T08:23:44.987Z,71.40
2022-10-18T08:26:15.737Z,72.85
2022-10-18T08:28:49.109Z,73.25
2022-10-18T08:31:21.490Z,70.75
2022-10-18T08:33:48.983Z,69.05
2022-10-18T08:36:17.092Z,68.93
2022-10-18T08:38:44.563Z,69.45
2022-10-18T08:41:33.759Z,74.13
2022-10-18T08:44:24.841Z,69.85
2022-10-18T08:47:00.329Z,67.47
2022-10-18T08:49:34.636Z,66.88
2022-10-18T08:52:06.478Z,69.60
2022-10-18T08:54:39.465Z,68.65
2022-10-18T08:57:18.224Z,67.15
2022-10-18T08:59:45.979Z,66.82
2022-10-18T09:02:39.424Z,67.28
2022-10-18T09:05:34.300Z,65.15
2022-10-18T09:08:30.880Z,68.25
2022-10-18T09:11:26.756Z,63.58
2022-10-18T09:14:22.590Z,65.88
2022-10-18T09:17:20.558Z,67.65
2022-10-18T09:20:19.830Z,64.70
2022-10-18T09:23:15.684Z,68.28
2022-10-18T09:25:51.999Z,64.30
2022-10-18T09:28:46.781Z,64.15
2022-10-18T09:31:41.092Z,63.53
2022-10-18T09:34:22.816Z,61.78
2022-10-18T09:39:24.900Z,61.40
2022-10-18T09:42:00.186Z,60.92
2022-10-18T09:44:34.492Z,58.97
2022-10-18T09:47:06.337Z,60.28
2022-10-18T09:49:40.353Z,60.83
2022-10-18T09:52:18.719Z,56.72
2022-10-18T09:55:15.149Z,57.40
2022-10-18T09:57:55.453Z,58.85
2022-10-18T10:00:31.054Z,59.63
2022-10-18T10:03:00.928Z,57.22
2022-10-18T10:05:28.251Z,58.33
2022-10-18T10:07:59.894Z,55.83
2022-10-18T10:10:29.722Z,57.08
2022-10-18T10:13:03.726Z,57.30
2022-10-18T10:15:36.953Z,56.13
2022-10-18T10:18:25.220Z,54.65
2022-10-18T10:20:54.372Z,54.75
2022-10-18T10:23:26.945Z,54.78
2022-10-18T10:26:03.792Z,53.60
2022-10-18T10:28:36.739Z,50.17
2022-10-18T10:31:24.901Z,49.25
2022-10-18T10:34:18.219Z,52.80
2022-10-18T10:36:48.497Z,51.72
2022-10-18T10:39:19.260Z,49.80
2022-10-18T10:41:55.660Z,50.17
2022-10-18T10:44:26.974Z,45.95
2022-10-18T10:49:42.496Z,45.67
2022-10-18T10:52:27.656Z,45.45
2022-10-18T10:57:48.903Z,46.08
2022-10-18T11:00:37.616Z,46.83
2022-10-18T11:03:28.559Z,45.83
2022-10-18T11:06:00.324Z,47.33
2022-10-18T11:08:33.979Z,45.50
2022-10-18T11:11:19.266Z,48.40
2022-10-18T11:14:07.380Z,47.20
2022-10-18T11:20:03.316Z,48.92
2022-10-18T11:22:38.601Z,47.35
2022-10-18T11:25:08.269Z,48.38
2022-10-18T11:27:46.627Z,45.17
2022-10-18T11:30:55.433Z,49.20
2022-10-18T11:34:07.103Z,48.90
2022-10-18T11:36:32.106Z,50.83
2022-10-18T11:39:30.473Z,50.35
2022-10-18T11:42:24.544Z,47.35
2022-10-18T11:45:10.640Z,48.47
2022-10-18T11:47:52.265Z,48.30
2022-10-18T11:50:53.825Z,48.17
2022-10-18T11:53:38.471Z,46.88
2022-10-18T11:56:12.159Z,48.13
2022-10-18T11:59:06.549Z,47.45
2022-10-18T12:02:03.501Z,45.95
2022-10-18T12:04:39.179Z,46.75
2022-10-18T12:07:21.190Z,49.47
2022-10-18T12:09:54.801Z,50.10
2022-10-18T12:12:30.024Z,50.17
2022-10-18T12:15:02.998Z,52.15
2022-10-18T12:17:49.914Z,49.15
2022-10-18T12:20:24.856Z,48.75
2022-10-18T12:22:59.289Z,47.33
2022-10-18T12:25:33.799Z,46.50
2022-10-18T12:28:36.303Z,45.15
2022-10-18T12:31:08.213Z,44.63
2022-10-18T12:33:40.173Z,42.47
2022-10-18T12:36:23.393Z,43.40
2022-10-18T12:38:58.645Z,40.13
2022-10-18T12:41:32.356Z,38.92
2022-10-18T12:44:19.103Z,39.17
2022-10-18T12:46:54.902Z,40.58
2022-10-18T12:49:29.816Z,39.70
2022-10-18T12:52:01.896Z,40.20
2022-10-18T12:54:34.981Z,38.88
2022-10-18T12:57:05.835Z,38.92
2022-10-18T12:59:33.015Z,35.08
2022-10-18T13:02:00.322Z,38.22
2022-10-18T13:04:27.595Z,35.97
2022-10-18T13:07:00.765Z,40.40
2022-10-18T13:09:44.450Z,38.83
2022-10-18T13:12:12.343Z,38.30
2022-10-18T13:15:24.732Z,38.90
2022-10-18T13:18:03.840Z,39.35
2022-10-18T13:20:31.627Z,38.78
2022-10-18T13:23:31.606Z,39.15
2022-10-18T13:26:23.885Z,37.05
2022-10-18T13:28:57.307Z,38.83
2022-10-18T13:31:42.349Z,33.70
2022-10-18T13:34:24.959Z,32.90
2022-10-18T13:37:05.129Z,34.13
2022-10-18T13:39:33.661Z,37.35
2022-10-18T13:42:01.303Z,29.85
2022-10-18T13:44:37.713Z,30.23
2022-10-18T13:47:05.160Z,32.15
2022-10-18T13:49:38.542Z,29.08
2022-10-18T13:52:18.094Z,27.05
2022-10-18T13:54:54.519Z,28.35
2022-10-18T13:57:24.400Z,27.33
2022-10-18T14:00:19.578Z,26.65
2022-10-18T14:03:51.509Z,27.23
2022-10-18T14:06:22.577Z,27.27
2022-10-18T14:08:56.256Z,25.63
2022-10-18T14:11:45.978Z,23.98
2022-10-18T14:14:41.059Z,25.60
2022-10-18T14:17:15.360Z,24.08
2022-10-18T14:19:52.242Z,24.17
2022-10-18T14:22:38.393Z,25.27
2022-10-18T14:25:21.033Z,27.58
2022-10-18T14:27:50.953Z,27.17
2022-10-18T14:30:21.267Z,25.73
2022-10-18T14:32:51.868Z,26.42
2022-10-18T14:35:32.410Z,27.83
2022-10-18T14:38:00.591Z,26.83
2022-10-18T14:40:40.736Z,25.52
2022-10-18T14:43:19.182Z,28.83
2022-10-18T14:45:46.724Z,26.77
2022-10-18T14:48:16.820Z,26.42
2022-10-18T14:50:48.605Z,27.83
2022-10-18T14:53:19.169Z,27.63
2022-10-18T14:56:04.584Z,26.05
2022-10-18T14:58:32.704Z,25.83
2022-10-18T15:01:00.612Z,27.30
2022-10-18T15:03:28.505Z,29.33
2022-10-18T15:05:59.619Z,28.52
2022-10-18T15:08:35.957Z,29.50
2022-10-18T15:11:03.609Z,31.00
2022-10-18T15:13:32.277Z,28.60
2022-10-18T15:16:00.074Z,28.38
2022-10-18T15:18:28.543Z,28.95
2022-10-18T15:21:21.313Z,27.05
2022-10-18T15:23:49.980Z,28.15
2022-10-18T15:26:29.676Z,26.40
2022-10-18T15:29:01.445Z,26.95
2022-10-18T15:31:35.799Z,26.35
2022-10-18T15:34:14.940Z,26.48
2022-10-18T15:39:25.766Z,26.23
2022-10-18T15:41:57.813Z,24.83
2022-10-18T15:44:31.563Z,24.08
2022-10-18T15:47:21.340Z,26.23
2022-10-18T15:49:58.412Z,24.60
2022-10-18T15:52:39.771Z,25.90
2022-10-18T15:55:32.920Z,25.95
2022-10-18T15:58:17.401Z,25.65
2022-10-18T16:00:46.539Z,24.67
2022-10-18T16:03:15.397Z,28.38
2022-10-18T16:05:42.895Z,27.35
2022-10-18T16:08:25.172Z,26.05
2022-10-18T16:10:52.403Z,26.02
2022-10-18T16:13:20.211Z,25.50
2022-10-18T16:15:47.614Z,26.55
2022-10-18T16:18:17.827Z,27.70
2022-10-18T16:20:47.768Z,28.13
2022-10-18T16:23:22.028Z,28.55
2022-10-18T16:25:50.459Z,28.73
2022-10-18T16:28:20.820Z,29.00
2022-10-18T16:30:55.731Z,31.00
2022-10-18T16:33:24.949Z,28.52
2022-10-18T16:35:53.195Z,31.05
2022-10-18T16:38:35.172Z,30.45
2022-10-18T16:41:05.498Z,31.73
2022-10-18T16:43:34.862Z,30.90
2022-10-18T16:46:04.019Z,29.90
2022-10-18T16:48:31.578Z,30.08
2022-10-18T16:50:59.234Z,30.70
2022-10-18T16:53:28.043Z,30.40
2022-10-18T16:56:01.584Z,32.35
2022-10-18T16:58:32.025Z,32.50
2022-10-18T17:01:01.819Z,31.73
2022-10-18T17:03:31.660Z,30.58
2022-10-18T17:05:58.933Z,32.08
2022-10-18T17:08:28.145Z,31.80
2022-10-18T17:10:58.587Z,32.17
2022-10-18T17:13:26.146Z,31.90
2022-10-18T17:15:53.965Z,32.28
2022-10-18T17:18:26.226Z,32.10
2022-10-18T17:20:54.130Z,32.30
2022-10-18T17:23:21.749Z,32.15
2022-10-18T17:26:04.724Z,33.17
2022-10-18T17:28:38.384Z,33.95
2022-10-18T17:31:07.732Z,32.08
2022-10-18T17:33:35.659Z,32.97
2022-10-18T17:36:04.112Z,33.78
2022-10-18T17:38:31.633Z,34.15
2022-10-18T17:40:59.253Z,34.67
2022-10-18T17:43:26.604Z,34.67
2022-10-18T17:45:56.173Z,35.53
2022-10-18T17:48:24.596Z,35.97
2022-10-18T17:50:52.356Z,35.25
2022-10-18T17:53:22.799Z,35.72
2022-10-18T17:55:50.536Z,37.58
2022-10-18T17:58:18.209Z,38.83
2022-10-18T18:00:45.984Z,38.55
2022-10-18T18:03:14.178Z,39.22
2022-10-18T18:05:41.567Z,38.85
2022-10-18T18:08:09.255Z,41.67
2022-10-18T18:10:36.513Z,39.45
2022-10-18T18:13:04.301Z,38.35
2022-10-18T18:15:32.137Z,37.42
2022-10-18T18:17:59.858Z,37.78
2022-10-18T18:20:27.230Z,38.90
2022-10-18T18:22:54.543Z,38.85
2022-10-18T18:25:21.803Z,37.42
2022-10-18T18:27:50.057Z,38.22
2022-10-18T18:30:17.898Z,38.35
2022-10-18T18:32:45.443Z,39.83
2022-10-18T18:35:13.281Z,41.10
2022-10-18T18:37:40.557Z,39.75
2022-10-18T18:40:09.428Z,39.90
2022-10-18T18:42:37.774Z,38.78
2022-10-18T18:45:05.526Z,40.85
2022-10-18T18:47:35.428Z,42.22
2022-10-18T18:50:02.740Z,40.38
2022-10-18T18:52:30.943Z,40.40
2022-10-18T18:54:58.811Z,41.28
2022-10-18T18:57:26.071Z,40.85
2022-10-18T18:59:53.272Z,40.35
2022-10-18T19:02:20.528Z,40.65
2022-10-18T19:04:48.389Z,40.35
2022-10-18T19:07:15.786Z,42.33
2022-10-18T19:09:44.627Z,41.63
2022-10-18T19:12:11.833Z,43.28
2022-10-18T19:14:39.114Z,42.13
2022-10-18T19:17:07.841Z,40.20
2022-10-18T19:19:35.541Z,39.90
2022-10-18T19:22:09.496Z,40.35
2022-10-18T19:24:37.437Z,42.00
2022-10-18T19:27:09.612Z,41.97
2022-10-18T19:29:38.782Z,42.40
2022-10-18T19:32:08.753Z,41.60
2022-10-18T19:34:36.459Z,40.85
2022-10-18T19:37:03.972Z,43.50
2022-10-18T19:39:33.744Z,42.05
2022-10-18T19:42:05.211Z,41.70
2022-10-18T19:44:35.800Z,42.15
2022-10-18T19:47:07.702Z,42.73
2022-10-18T19:49:35.492Z,41.22
2022-10-18T19:52:02.757Z,41.67
2022-10-18T19:54:30.599Z,41.28
2022-10-18T19:56:57.943Z,41.78
2022-10-18T19:59:26.392Z,41.60
2022-10-18T20:01:54.117Z,43.42
2022-10-18T20:04:21.673Z,42.85
2022-10-18T20:06:50.624Z,42.45
2022-10-18T20:09:20.754Z,42.17
2022-10-18T20:11:48.653Z,41.88
2022-10-18T20:14:15.889Z,40.92
2022-10-18T20:16:43.176Z,42.03
2022-10-18T20:19:10.516Z,40.75
2022-10-18T20:21:39.328Z,43.25
2022-10-18T20:24:09.253Z,42.25
2022-10-18T20:26:37.120Z,42.47
2022-10-18T20:29:05.062Z,43.75
2022-10-18T20:31:35.796Z,42.47
2022-10-18T20:34:08.397Z,45.43
2022-10-18T20:36:36.668Z,42.70
2022-10-18T20:39:04.490Z,44.40
2022-10-18T20:41:34.605Z,42.88
2022-10-18T20:44:08.377Z,44.22
2022-10-18T20:46:37.011Z,42.33
2022-10-18T20:49:07.063Z,44.47
2022-10-18T20:51:35.219Z,42.65
2022-10-18T20:56:35.537Z,46.67
2022-10-18T20:59:06.053Z,46.97
2022-10-18T21:01:35.500Z,47.00
2022-10-18T21:04:08.013Z,47.80
2022-10-18T21:06:40.321Z,45.90
2022-10-18T21:09:13.385Z,47.40
2022-10-18T21:11:43.247Z,45.47
2022-10-18T21:14:19.291Z,45.17
2022-10-18T21:16:48.059Z,44.30
2022-10-18T21:19:18.415Z,45.05
2022-10-18T21:21:47.686Z,45.10
2022-10-18T21:24:15.804Z,45.25
2022-10-18T21:26:43.648Z,45.38
2022-10-18T21:29:12.875Z,43.40
2022-10-18T21:31:42.128Z,45.97
2022-10-18T21:34:17.554Z,46.05
2022-10-18T21:36:48.455Z,47.97
2022-10-18T21:39:20.044Z,46.80
2022-10-18T21:44:16.462Z,44.03
2022-10-18T21:46:44.478Z,45.15
2022-10-18T21:49:12.427Z,45.38
2022-10-18T21:51:40.603Z,42.25
2022-10-18T21:54:13.212Z,42.63
2022-10-18T21:56:40.873Z,41.95
2022-10-18T21:59:08.217Z,42.45
